createdAt,value
2018-12-19T00:01:59.444Z,6.10
2018-12-19T00:04:28.990Z,5.17
2018-12-19T00:06:58.534Z,6.00
2018-12-19T00:09:26.069Z,6.33
2018-12-19T00:11:53.619Z,9.48
2018-12-19T00:14:21.220Z,14.55
2018-12-19T00:16:48.898Z,12.73
2018-12-19T00:19:16.464Z,21.45
2018-12-19T00:21:43.944Z,20.35
2018-12-19T00:24:11.374Z,21.45
2018-12-19T00:26:40.950Z,25.85
2018-12-19T00:29:10.450Z,24.20
2018-12-19T00:31:40.033Z,23.77
2018-12-19T00:34:09.518Z,20.15
2018-12-19T00:36:37.588Z,20.80
2018-12-19T00:39:09.541Z,20.95
2018-12-19T00:41:37.916Z,22.42
2018-12-19T00:44:05.377Z,19.37
2018-12-19T00:46:32.855Z,23.47
2018-12-19T00:49:00.487Z,19.98
2018-12-19T00:51:28.018Z,17.80
2018-12-19T00:53:55.560Z,16.73
2018-12-19T00:56:23.011Z,14.45
2018-12-19T00:58:50.716Z,11.33
2018-12-19T01:01:18.225Z,16.62
2018-12-19T01:03:45.746Z,16.57
2018-12-19T01:06:13.277Z,11.55
2018-12-19T01:08:41.023Z,15.23
2018-12-19T01:11:09.521Z,12.18
2018-12-19T01:13:37.172Z,11.48
2018-12-19T01:16:04.779Z,10.88
2018-12-19T01:18:32.181Z,12.25
2018-12-19T01:20:59.750Z,15.93
2018-12-19T01:23:27.164Z,12.20
2018-12-19T01:25:54.666Z,14.70
2018-12-19T01:28:22.218Z,15.50
2018-12-19T01:30:49.816Z,14.75
2018-12-19T01:33:17.296Z,13.58
2018-12-19T01:35:44.895Z,12.82
2018-12-19T01:38:12.526Z,15.38
2018-12-19T01:40:41.303Z,11.88
2018-12-19T01:43:08.709Z,15.98
2018-12-19T01:45:36.302Z,13.50
2018-12-19T01:48:06.628Z,12.47
2018-12-19T01:50:34.075Z,12.03
2018-12-19T01:53:01.572Z,15.50
2018-12-19T01:55:29.019Z,10.93
2018-12-19T01:57:56.434Z,10.25
2018-12-19T02:00:28.457Z,11.55
2018-12-19T02:02:55.902Z,11.00
2018-12-19T02:05:24.672Z,13.15
2018-12-19T02:07:52.138Z,14.83
2018-12-19T02:10:19.672Z,11.45
2018-12-19T02:12:47.252Z,13.75
2018-12-19T02:15:14.741Z,10.08
2018-12-19T02:17:42.281Z,14.60
2018-12-19T02:20:09.910Z,13.40
2018-12-19T02:22:37.470Z,11.53
2018-12-19T02:25:05.044Z,13.43
2018-12-19T02:27:32.646Z,15.03
2018-12-19T02:30:07.279Z,13.25
2018-12-19T02:32:35.530Z,10.48
2018-12-19T02:35:03.369Z,8.98
2018-12-19T02:37:31.061Z,13.20
2018-12-19T02:39:58.579Z,9.48
2018-12-19T02:42:26.076Z,9.83
2018-12-19T02:44:53.607Z,10.00
2018-12-19T02:47:21.133Z,8.50
2018-12-19T02:49:48.632Z,13.05
2018-12-19T02:52:16.259Z,7.78
2018-12-19T02:54:43.696Z,11.22
2018-12-19T02:57:11.216Z,9.03
2018-12-19T02:59:38.793Z,9.53
2018-12-19T03:02:06.215Z,12.13
2018-12-19T03:04:33.712Z,9.58
2018-12-19T03:07:01.399Z,10.20
2018-12-19T03:09:28.906Z,7.87
2018-12-19T03:11:56.323Z,8.75
2018-12-19T03:14:23.904Z,8.10
2018-12-19T03:16:51.357Z,9.30
2018-12-19T03:19:18.816Z,9.28
2018-12-19T03:21:46.314Z,7.55
2018-12-19T03:24:14.056Z,7.12
2018-12-19T03:26:41.467Z,9.55
2018-12-19T03:29:08.949Z,8.05
2018-12-19T03:31:36.451Z,9.43
2018-12-19T03:34:03.968Z,9.93
2018-12-19T03:36:31.509Z,9.10
2018-12-19T03:38:58.996Z,6.97
2018-12-19T03:41:26.525Z,8.53
2018-12-19T03:43:53.972Z,9.13
2018-12-19T03:46:21.469Z,7.87
2018-12-19T03:48:54.606Z,8.63
2018-12-19T03:51:22.165Z,6.83
2018-12-19T03:53:49.749Z,8.85
2018-12-19T03:56:17.239Z,7.17
2018-12-19T03:58:44.673Z,9.03
2018-12-19T04:01:12.168Z,8.85
2018-12-19T04:03:39.708Z,6.67
2018-12-19T04:06:07.269Z,8.43
2018-12-19T04:08:34.788Z,9.18
2018-12-19T04:11:02.227Z,7.45
2018-12-19T04:13:30.804Z,7.33
2018-12-19T04:15:58.293Z,6.25
2018-12-19T04:18:25.806Z,8.25
2018-12-19T04:20:53.307Z,6.90
2018-12-19T04:23:20.863Z,12.43
2018-12-19T04:25:48.360Z,8.40
2018-12-19T04:28:15.784Z,9.50
2018-12-19T04:30:43.462Z,9.18
2018-12-19T04:33:10.958Z,8.60
2018-12-19T04:35:39.197Z,12.55
2018-12-19T04:38:06.751Z,9.88
2018-12-19T04:40:34.340Z,7.78
2018-12-19T04:43:03.018Z,9.85
2018-12-19T04:45:30.486Z,7.85
2018-12-19T04:47:58.030Z,10.45
2018-12-19T04:50:25.509Z,7.80
2018-12-19T04:52:52.931Z,8.00
2018-12-19T04:55:20.407Z,7.12
2018-12-19T04:57:47.922Z,5.90
2018-12-19T05:00:15.378Z,5.17
2018-12-19T05:02:42.889Z,8.90
2018-12-19T05:05:10.334Z,6.45
2018-12-19T05:07:37.875Z,9.78
2018-12-19T05:10:12.045Z,6.65
2018-12-19T05:12:35.285Z,9.70
2018-12-19T05:15:03.002Z,10.63
2018-12-19T05:17:30.582Z,8.33
2018-12-19T05:19:58.421Z,11.38
2018-12-19T05:22:25.950Z,7.67
2018-12-19T05:24:53.421Z,7.70
2018-12-19T05:27:20.901Z,9.65
2018-12-19T05:29:48.462Z,7.53
2018-12-19T05:32:15.908Z,8.75
2018-12-19T05:34:43.504Z,8.03
2018-12-19T05:37:10.967Z,10.28
2018-12-19T05:39:38.453Z,7.55
2018-12-19T05:42:05.902Z,9.60
2018-12-19T05:44:33.403Z,8.65
2018-12-19T05:47:01.070Z,9.53
2018-12-19T05:49:28.489Z,8.70
2018-12-19T05:51:55.943Z,8.30
2018-12-19T05:54:23.517Z,8.95
2018-12-19T05:56:51.058Z,5.50
2018-12-19T05:59:18.547Z,6.30
2018-12-19T06:01:46.163Z,5.40
2018-12-19T06:04:15.616Z,7.53
2018-12-19T06:06:43.172Z,5.62
2018-12-19T06:09:10.702Z,7.47
2018-12-19T06:11:38.235Z,4.87
2018-12-19T06:14:05.795Z,7.80
2018-12-19T06:16:33.266Z,7.33
2018-12-19T06:19:00.854Z,5.80
2018-12-19T06:21:28.363Z,6.28
2018-12-19T06:23:55.917Z,6.28
2018-12-19T06:26:23.457Z,6.55
2018-12-19T06:28:57.220Z,6.47
2018-12-19T06:31:24.842Z,7.55
2018-12-19T06:33:53.928Z,7.97
2018-12-19T06:36:22.682Z,6.70
2018-12-19T06:38:50.218Z,5.50
2018-12-19T06:41:17.601Z,7.47
2018-12-19T06:43:45.235Z,6.20
2018-12-19T06:46:12.702Z,6.15
2018-12-19T06:48:40.130Z,6.80
2018-12-19T06:51:07.594Z,6.28
2018-12-19T06:53:35.130Z,5.70
2018-12-19T06:56:02.607Z,4.83
2018-12-19T06:58:30.191Z,5.08
2018-12-19T07:00:57.638Z,4.50
2018-12-19T07:03:25.157Z,3.52
2018-12-19T07:05:52.689Z,4.08
2018-12-19T07:08:20.269Z,3.90
2018-12-19T07:10:47.842Z,5.35
2018-12-19T07:13:15.315Z,8.23
2018-12-19T07:15:42.790Z,2.60
2018-12-19T07:18:10.213Z,3.90
2018-12-19T07:20:37.841Z,5.70
2018-12-19T07:23:11.046Z,2.53
2018-12-19T07:25:39.722Z,5.30
2018-12-19T07:28:07.267Z,7.67
2018-12-19T07:30:34.774Z,3.63
2018-12-19T07:33:02.204Z,2.83
2018-12-19T07:35:29.693Z,1.80
2018-12-19T07:37:57.134Z,2.33
2018-12-19T07:40:24.596Z,8.07
2018-12-19T07:42:52.033Z,1.80
2018-12-19T07:45:19.635Z,4.47
2018-12-19T07:47:47.156Z,4.77
2018-12-19T07:50:14.614Z,2.30
2018-12-19T07:52:42.400Z,1.67
2018-12-19T07:55:09.920Z,3.90
2018-12-19T07:57:37.514Z,4.30
2018-12-19T08:00:05.397Z,1.80
2018-12-19T08:02:32.950Z,2.70
2018-12-19T08:05:00.424Z,2.00
2018-12-19T08:07:27.954Z,3.87
2018-12-19T08:09:55.488Z,2.27
2018-12-19T08:12:22.993Z,2.93
2018-12-19T08:14:55.038Z,2.33
2018-12-19T08:17:22.500Z,6.13
2018-12-19T08:19:49.959Z,6.23
2018-12-19T08:22:17.373Z,5.80
2018-12-19T08:24:44.870Z,5.87
2018-12-19T08:27:12.366Z,8.50
2018-12-19T08:29:40.025Z,7.23
2018-12-19T08:32:07.524Z,8.87
2018-12-19T08:34:35.036Z,5.40
2018-12-19T08:37:02.473Z,4.33
2018-12-19T08:39:30.125Z,4.30
2018-12-19T08:41:57.690Z,6.87
2018-12-19T08:44:25.172Z,8.97
2018-12-19T08:46:52.693Z,7.80
2018-12-19T08:49:20.254Z,6.00
2018-12-19T08:51:47.732Z,9.80
2018-12-19T08:54:15.265Z,11.13
2018-12-19T08:56:42.758Z,9.97
2018-12-19T08:59:10.196Z,6.97
2018-12-19T09:01:37.707Z,11.00
2018-12-19T09:04:05.263Z,12.10
2018-12-19T09:06:32.842Z,9.57
2018-12-19T09:09:00.426Z,9.60
2018-12-19T09:11:28.090Z,6.30
2018-12-19T09:13:55.610Z,8.37
2018-12-19T09:16:23.021Z,6.30
2018-12-19T09:18:50.462Z,4.57
2018-12-19T09:21:17.963Z,4.07
2018-12-19T09:23:45.509Z,6.45
2018-12-19T09:26:13.019Z,12.37
2018-12-19T09:28:40.445Z,7.23
2018-12-19T09:31:15.091Z,4.93
2018-12-19T09:33:42.982Z,12.83
2018-12-19T09:36:10.802Z,5.50
2018-12-19T09:38:38.609Z,5.00
2018-12-19T09:41:12.083Z,10.57
2018-12-19T09:43:36.194Z,10.18
2018-12-19T09:46:03.856Z,10.13
2018-12-19T09:48:31.459Z,6.73
2018-12-19T09:50:59.315Z,7.80
2018-12-19T09:53:26.947Z,6.30
2018-12-19T09:55:54.514Z,8.00
2018-12-19T09:58:22.993Z,3.93
2018-12-19T10:00:50.572Z,3.80
2018-12-19T10:03:18.135Z,5.83
2018-12-19T10:05:46.001Z,6.73
2018-12-19T10:08:13.580Z,3.97
2018-12-19T10:10:41.146Z,8.67
2018-12-19T10:13:08.620Z,3.40
2018-12-19T10:15:36.103Z,3.47
2018-12-19T10:18:03.738Z,3.83
2018-12-19T10:20:31.306Z,9.13
2018-12-19T10:22:58.856Z,8.60
2018-12-19T10:25:26.435Z,9.30
2018-12-19T10:27:54.095Z,4.90
2018-12-19T10:30:21.516Z,9.13
2018-12-19T10:32:55.684Z,11.40
2018-12-19T10:35:24.117Z,5.40
2018-12-19T10:37:51.555Z,7.30
2018-12-19T10:40:19.059Z,8.63
2018-12-19T10:42:46.550Z,5.70
2018-12-19T10:45:14.016Z,8.20
2018-12-19T10:47:41.544Z,9.53
2018-12-19T10:50:09.927Z,5.60
2018-12-19T10:52:37.652Z,3.97
2018-12-19T10:55:07.607Z,3.57
2018-12-19T10:57:35.462Z,3.93
2018-12-19T11:00:05.101Z,8.03
2018-12-19T11:02:34.799Z,7.23
2018-12-19T11:05:02.178Z,6.47
2018-12-19T11:07:29.873Z,3.73
2018-12-19T11:09:58.016Z,7.50
2018-12-19T11:12:25.500Z,4.40
2018-12-19T11:14:52.962Z,5.00
2018-12-19T11:17:20.452Z,4.57
2018-12-19T11:19:47.895Z,5.97
2018-12-19T11:22:15.360Z,5.80
2018-12-19T11:24:42.786Z,8.77
2018-12-19T11:27:10.274Z,9.07
2018-12-19T11:29:37.843Z,3.80
2018-12-19T11:32:05.412Z,5.90
2018-12-19T11:34:32.862Z,6.47
2018-12-19T11:37:00.368Z,8.70
2018-12-19T11:39:27.877Z,9.30
2018-12-19T11:41:55.354Z,4.57
2018-12-19T11:44:22.773Z,7.03
2018-12-19T11:46:50.358Z,6.73
2018-12-19T11:49:17.802Z,4.00
2018-12-19T11:51:45.312Z,4.40
2018-12-19T11:54:13.055Z,7.83
2018-12-19T11:56:40.605Z,15.40
2018-12-19T11:59:08.149Z,7.23
2018-12-19T12:01:41.326Z,4.33
2018-12-19T12:04:05.337Z,8.20
2018-12-19T12:06:34.895Z,6.80
2018-12-19T12:09:03.063Z,10.00
2018-12-19T12:11:32.507Z,12.33
2018-12-19T12:14:00.098Z,6.90
2018-12-19T12:16:27.596Z,6.80
2018-12-19T12:18:55.092Z,5.07
2018-12-19T12:21:22.618Z,3.93
2018-12-19T12:23:50.319Z,5.80
2018-12-19T12:26:17.842Z,2.60
2018-12-19T12:28:45.296Z,6.43
2018-12-19T12:31:12.734Z,7.40
2018-12-19T12:33:40.415Z,4.50
2018-12-19T12:36:08.156Z,8.97
2018-12-19T12:38:35.634Z,5.90
2018-12-19T12:41:03.221Z,4.10
2018-12-19T12:43:33.831Z,5.93
2018-12-19T12:46:01.362Z,10.10
2018-12-19T12:48:29.129Z,5.97
2018-12-19T12:50:56.538Z,9.73
2018-12-19T12:53:24.021Z,4.80
2018-12-19T12:55:51.478Z,3.43
2018-12-19T12:58:18.919Z,5.50
2018-12-19T13:00:46.585Z,3.20
2018-12-19T13:03:14.198Z,6.03
2018-12-19T13:05:41.653Z,5.30
2018-12-19T13:08:09.153Z,10.70
2018-12-19T13:10:36.818Z,3.47
2018-12-19T13:13:04.492Z,6.57
2018-12-19T13:15:37.919Z,8.50
2018-12-19T13:18:05.411Z,2.47
2018-12-19T13:20:32.917Z,4.37
2018-12-19T13:23:00.446Z,5.90
2018-12-19T13:25:27.984Z,2.70
2018-12-19T13:27:55.604Z,4.10
2018-12-19T13:30:23.072Z,3.77
2018-12-19T13:32:50.559Z,7.43
2018-12-19T13:35:18.040Z,4.57
2018-12-19T13:37:45.618Z,2.53
2018-12-19T13:40:13.165Z,4.43
2018-12-19T13:42:40.712Z,7.80
2018-12-19T13:45:08.478Z,7.40
2018-12-19T13:47:36.198Z,6.90
2018-12-19T13:50:04.494Z,4.80
2018-12-19T13:52:31.997Z,6.00
2018-12-19T13:54:59.454Z,6.70
2018-12-19T13:57:28.306Z,9.70
2018-12-19T13:59:56.025Z,6.73
2018-12-19T14:02:23.626Z,10.30
2018-12-19T14:04:51.311Z,11.33
2018-12-19T14:07:18.884Z,10.63
2018-12-19T14:09:46.703Z,9.07
2018-12-19T14:12:14.233Z,6.93
2018-12-19T14:14:41.738Z,10.30
2018-12-19T14:17:09.202Z,8.17
2018-12-19T14:19:36.721Z,8.43
2018-12-19T14:22:04.260Z,28.03
2018-12-19T14:24:31.817Z,24.37
2018-12-19T14:26:59.307Z,22.83
2018-12-19T14:29:26.846Z,24.67
2018-12-19T14:31:54.311Z,22.13
2018-12-19T14:34:21.873Z,23.80
2018-12-19T14:36:49.416Z,22.93
2018-12-19T14:39:17.187Z,21.50
2018-12-19T14:41:44.815Z,23.47
2018-12-19T14:44:12.354Z,26.53
2018-12-19T14:46:39.817Z,27.07
2018-12-19T14:49:13.795Z,24.63
2018-12-19T14:51:36.887Z,24.67
2018-12-19T14:54:04.584Z,23.00
2018-12-19T14:56:32.097Z,21.93
2018-12-19T14:58:59.643Z,20.70
2018-12-19T15:01:27.071Z,24.67
2018-12-19T15:03:55.624Z,30.17
2018-12-19T15:06:23.232Z,50.03
2018-12-19T15:08:50.828Z,34.67
2018-12-19T15:11:18.297Z,28.63
2018-12-19T15:13:45.795Z,25.30
2018-12-19T15:16:15.463Z,21.67
2018-12-19T15:18:43.126Z,27.90
2018-12-19T15:21:10.595Z,36.83
2018-12-19T15:23:38.206Z,34.97
2018-12-19T15:26:06.070Z,33.93
2018-12-19T15:28:33.549Z,29.13
2018-12-19T15:31:01.249Z,28.60
2018-12-19T15:33:28.871Z,29.00
2018-12-19T15:35:56.400Z,28.50
2018-12-19T15:38:23.979Z,30.00
2018-12-19T15:40:51.567Z,32.20
2018-12-19T15:43:19.064Z,23.50
2018-12-19T15:45:46.604Z,25.70
2018-12-19T15:48:14.023Z,29.63
2018-12-19T15:50:41.494Z,28.00
2018-12-19T15:53:09.018Z,27.10
2018-12-19T15:55:36.646Z,27.10
2018-12-19T15:58:04.329Z,29.13
2018-12-19T16:00:31.896Z,30.00
2018-12-19T16:02:59.474Z,31.20
2018-12-19T16:05:26.925Z,28.03
2018-12-19T16:07:54.408Z,31.23
2018-12-19T16:10:22.007Z,29.97
2018-12-19T16:12:49.574Z,35.43
2018-12-19T16:15:17.147Z,27.80
2018-12-19T16:17:44.698Z,34.30
2018-12-19T16:20:12.428Z,35.57
2018-12-19T16:22:39.858Z,33.63
2018-12-19T16:25:07.554Z,35.70
2018-12-19T16:27:35.148Z,44.30
2018-12-19T16:30:03.314Z,43.23
2018-12-19T16:32:31.041Z,31.73
2018-12-19T16:34:58.604Z,32.80
2018-12-19T16:37:26.081Z,33.43
2018-12-19T16:39:53.695Z,37.20
2018-12-19T16:42:21.275Z,40.20
2018-12-19T16:44:48.981Z,37.40
2018-12-19T16:47:16.468Z,38.87
2018-12-19T16:49:44.153Z,40.20
2018-12-19T16:52:11.642Z,39.47
2018-12-19T16:54:39.110Z,38.50
2018-12-19T16:57:06.672Z,37.60
2018-12-19T16:59:34.212Z,40.97
2018-12-19T17:02:01.791Z,40.97
2018-12-19T17:04:29.299Z,40.33
2018-12-19T17:06:57.354Z,44.43
2018-12-19T17:09:25.132Z,41.97
2018-12-19T17:11:52.652Z,41.43
2018-12-19T17:14:20.171Z,43.77
2018-12-19T17:16:47.827Z,38.03
2018-12-19T17:19:15.481Z,45.77
2018-12-19T17:21:43.074Z,45.30
2018-12-19T17:24:10.630Z,41.53
2018-12-19T17:26:38.097Z,34.73
2018-12-19T17:29:05.593Z,34.90
2018-12-19T17:31:33.250Z,32.83
2018-12-19T17:34:00.688Z,30.40
2018-12-19T17:36:28.320Z,40.23
2018-12-19T17:38:55.846Z,22.80
2018-12-19T17:41:23.370Z,17.13
2018-12-19T17:43:50.866Z,20.30
2018-12-19T17:46:18.321Z,7.63
2018-12-19T17:48:45.778Z,7.30
2018-12-19T17:51:13.415Z,6.70
2018-12-19T17:53:40.938Z,7.17
2018-12-19T17:56:08.430Z,5.67
2018-12-19T17:58:36.082Z,2.97
2018-12-19T18:01:03.792Z,4.10
2018-12-19T18:03:31.434Z,39.23
2018-12-19T18:05:58.897Z,89.30
2018-12-19T18:08:26.394Z,22.30
2018-12-19T18:10:53.909Z,23.23
2018-12-19T18:13:21.430Z,4.40
2018-12-19T18:15:48.833Z,1.43
2018-12-19T18:18:16.528Z,1.97
2018-12-19T18:21:00.905Z,1.20
2018-12-19T18:23:28.480Z,1.57
2018-12-19T18:25:55.925Z,1.57
2018-12-19T18:28:23.581Z,1.17
2018-12-19T18:30:51.021Z,1.40
2018-12-19T18:33:19.118Z,1.50
2018-12-19T18:35:46.522Z,1.87
2018-12-19T18:38:14.033Z,1.40
2018-12-19T18:40:41.582Z,1.90
2018-12-19T18:43:12.878Z,2.40
2018-12-19T18:45:38.460Z,41.20
2018-12-19T18:48:06.137Z,21.43
2018-12-19T18:50:33.567Z,7.97
2018-12-19T18:53:00.966Z,5.03
2018-12-19T18:55:28.638Z,3.33
2018-12-19T18:57:56.509Z,1.73
2018-12-19T19:00:32.016Z,1.17
2018-12-19T19:02:59.675Z,1.77
2018-12-19T19:05:27.230Z,1.60
2018-12-19T19:07:54.758Z,1.57
2018-12-19T19:10:22.403Z,1.40
2018-12-19T19:12:49.930Z,1.80
2018-12-19T19:15:17.546Z,1.60
2018-12-19T19:17:45.227Z,1.60
2018-12-19T19:20:12.688Z,1.70
2018-12-19T19:22:40.432Z,1.83
2018-12-19T19:25:08.190Z,1.67
2018-12-19T19:27:35.836Z,1.53
2018-12-19T19:30:03.625Z,2.17
2018-12-19T19:32:31.307Z,3.50
2018-12-19T19:34:58.896Z,7.70
2018-12-19T19:37:26.398Z,14.13
2018-12-19T19:39:53.922Z,11.83
2018-12-19T19:42:21.400Z,4.60
2018-12-19T19:44:48.956Z,2.97
2018-12-19T19:47:16.539Z,2.73
2018-12-19T19:49:44.357Z,2.80
2018-12-19T19:52:11.954Z,1.40
2018-12-19T19:54:39.711Z,1.43
2018-12-19T19:57:07.261Z,1.30
2018-12-19T19:59:34.786Z,2.00
2018-12-19T20:02:02.311Z,2.00
2018-12-19T20:04:29.879Z,1.10
2018-12-19T20:07:00.901Z,1.50
2018-12-19T20:09:26.846Z,2.43
2018-12-19T20:11:54.479Z,2.43
2018-12-19T20:14:21.907Z,2.17
2018-12-19T20:16:55.075Z,2.10
2018-12-19T20:19:22.597Z,1.73
2018-12-19T20:21:50.096Z,2.00
2018-12-19T20:24:17.802Z,1.73
2018-12-19T20:26:45.443Z,3.93
2018-12-19T20:29:12.890Z,2.90
2018-12-19T20:31:40.482Z,8.93
2018-12-19T20:34:07.931Z,2.97
2018-12-19T20:36:35.432Z,2.20
2018-12-19T20:39:06.301Z,4.43
2018-12-19T20:41:35.314Z,4.90
2018-12-19T20:44:02.999Z,2.30
2018-12-19T20:46:30.561Z,2.60
2018-12-19T20:48:58.144Z,2.50
2018-12-19T20:51:25.766Z,2.60
2018-12-19T20:53:53.209Z,2.47
2018-12-19T20:56:20.898Z,3.20
2018-12-19T20:58:48.571Z,2.60
2018-12-19T21:01:16.177Z,2.80
2018-12-19T21:03:45.263Z,2.73
2018-12-19T21:06:13.132Z,2.30
2018-12-19T21:08:40.703Z,4.93
2018-12-19T21:11:08.103Z,5.00
2018-12-19T21:13:35.628Z,2.30
2018-12-19T21:16:03.076Z,1.43
2018-12-19T21:18:36.261Z,1.33
2018-12-19T21:21:03.858Z,1.53
2018-12-19T21:23:31.979Z,1.63
2018-12-19T21:25:59.559Z,1.93
2018-12-19T21:28:27.204Z,2.43
2018-12-19T21:30:54.780Z,2.07
2018-12-19T21:33:22.365Z,2.50
2018-12-19T21:35:49.820Z,2.20
2018-12-19T21:38:17.302Z,2.13
2018-12-19T21:40:44.992Z,2.50
2018-12-19T21:43:12.567Z,3.93
2018-12-19T21:45:40.124Z,3.33
2018-12-19T21:48:07.761Z,2.93
2018-12-19T21:50:35.464Z,3.00
2018-12-19T21:53:03.186Z,2.93
2018-12-19T21:55:31.040Z,3.47
2018-12-19T21:57:58.637Z,3.83
2018-12-19T22:00:33.595Z,3.23
2018-12-19T22:03:06.811Z,3.20
2018-12-19T22:05:36.564Z,3.33
2018-12-19T22:08:04.398Z,2.80
2018-12-19T22:10:32.070Z,3.43
2018-12-19T22:12:59.864Z,5.03
2018-12-19T22:15:27.553Z,7.90
2018-12-19T22:18:00.782Z,5.73
2018-12-19T22:20:28.242Z,3.47
2018-12-19T22:22:55.854Z,4.23
2018-12-19T22:25:24.193Z,3.63
2018-12-19T22:27:51.745Z,4.00
2018-12-19T22:30:19.416Z,5.00
2018-12-19T22:32:47.084Z,3.90
2018-12-19T22:35:14.788Z,5.07
2018-12-19T22:37:42.484Z,7.00
2018-12-19T22:40:10.467Z,5.00
2018-12-19T22:42:37.976Z,4.27
2018-12-19T22:45:05.776Z,4.90
2018-12-19T22:47:33.477Z,6.20
2018-12-19T22:50:01.018Z,5.53
2018-12-19T22:52:28.650Z,4.77
2018-12-19T22:54:56.458Z,4.83
2018-12-19T22:57:24.034Z,22.97
2018-12-19T22:59:51.694Z,4.67
2018-12-19T23:02:24.930Z,4.87
2018-12-19T23:04:54.474Z,5.80
2018-12-19T23:07:21.876Z,5.20
2018-12-19T23:09:49.450Z,4.87
2018-12-19T23:12:17.081Z,5.03
2018-12-19T23:14:44.818Z,3.73
2018-12-19T23:17:24.039Z,4.57
2018-12-19T23:19:57.693Z,6.03
2018-12-19T23:22:31.466Z,3.80
2018-12-19T23:25:05.891Z,4.30
2018-12-19T23:27:35.425Z,5.60
2018-12-19T23:30:06.555Z,5.70
2018-12-19T23:32:34.355Z,5.13
2018-12-19T23:35:01.962Z,4.17
2018-12-19T23:37:29.707Z,6.00
2018-12-19T23:39:57.184Z,5.37
2018-12-19T23:42:25.888Z,4.23
2018-12-19T23:44:53.516Z,3.43
2018-12-19T23:47:21.161Z,3.87
2018-12-19T23:49:48.773Z,4.33
2018-12-19T23:52:16.216Z,6.23
2018-12-19T23:54:43.760Z,4.03
2018-12-19T23:57:11.579Z,3.63
2018-12-19T23:59:39.400Z,5.07
